Time;durP1;ratioP1;P1;durP2;ratioP2;P2;SDS_P1;SDS_P2;PMS_P1;PMS_P2;Temp;Humidity;BMP_temperature;BMP_pressure;BME280_temperature;BME280_humidity;BME280_pressure;Samples;Min_cycle;Max_cycle;Signal;HPM_P1;HPM_P2
2023/05/27 00:00:42;;;;;;;5.05;3.65;;;23.70;49.30;;;;;;6216270;28;20196;-71
2023/05/27 00:03:56;;;;;;;7.07;3.72;;;23.70;49.60;;;;;;6217089;28;20109;-72
2023/05/27 00:07:06;;;;;;;6.10;3.40;;;23.70;49.80;;;;;;6216119;28;20026;-73
2023/05/27 00:10:19;;;;;;;8.90;3.85;;;23.60;49.90;;;;;;6198507;28;20061;-71
2023/05/27 00:13:28;;;;;;;6.85;3.92;;;23.60;50.00;;;;;;6217636;28;20026;-71
2023/05/27 00:16:37;;;;;;;9.77;4.10;;;23.50;50.30;;;;;;6239007;28;20107;-73
2023/05/27 00:19:48;;;;;;;6.90;3.97;;;23.50;50.50;;;;;;6241422;28;20075;-72
2023/05/27 00:22:59;;;;;;;8.30;3.60;;;23.40;50.70;;;;;;6223725;28;20207;-72
2023/05/27 00:26:08;;;;;;;13.05;3.88;;;23.40;50.80;;;;;;6241313;28;20045;-72
2023/05/27 00:29:20;;;;;;;8.73;3.88;;;23.30;50.90;;;;;;6241137;28;20073;-72
2023/05/27 00:32:29;;;;;;;5.53;3.72;;;23.30;51.20;;;;;;6222805;28;20033;-72
2023/05/27 00:35:32;;;;;;;8.82;4.03;;;23.20;51.40;;;;;;6241192;28;20022;-72
2023/05/27 00:38:40;;;;;;;7.78;3.90;;;23.10;51.60;;;;;;6223717;28;20040;-71
2023/05/27 00:41:51;;;;;;;10.63;4.10;;;23.10;51.70;;;;;;6240983;28;20048;-73
2023/05/27 00:45:04;;;;;;;7.68;3.80;;;23.00;51.90;;;;;;6241356;28;20159;-73
2023/05/27 00:48:17;;;;;;;7.75;4.30;;;23.00;52.10;;;;;;6240288;28;20607;-72
2023/05/27 00:51:29;;;;;;;5.05;3.58;;;22.90;52.20;;;;;;6237306;28;20075;-72
2023/05/27 00:54:38;;;;;;;9.43;4.15;;;22.90;52.30;;;;;;6216336;28;20049;-71
2023/05/27 00:57:46;;;;;;;8.98;4.20;;;22.90;52.50;;;;;;6236987;28;20032;-72
2023/05/27 01:00:58;;;;;;;14.80;4.13;;;22.80;52.50;;;;;;6223040;28;20579;-72
2023/05/27 01:04:12;;;;;;;5.22;3.72;;;22.80;52.60;;;;;;6240807;28;20041;-71
2023/05/27 01:07:45;;;;;;;8.27;4.30;;;22.70;52.70;;;;;;6240481;28;20061;-72
2023/05/27 01:10:59;;;;;;;6.47;3.88;;;22.70;52.80;;;;;;6222297;28;20033;-73
2023/05/27 01:14:15;;;;;;;8.90;3.80;;;22.60;53.00;;;;;;6222701;28;20514;-71
2023/05/27 01:17:29;;;;;;;8.52;3.97;;;22.60;53.20;;;;;;6240313;28;20025;-73
2023/05/27 01:20:40;;;;;;;7.80;4.40;;;22.60;53.40;;;;;;6240588;28;20136;-73
2023/05/27 01:23:56;;;;;;;5.25;3.70;;;22.60;53.40;;;;;;6240940;28;20029;-71
2023/05/27 01:27:04;;;;;;;5.47;3.80;;;22.60;53.50;;;;;;6239617;28;20033;-73
2023/05/27 01:30:16;;;;;;;8.57;4.38;;;22.60;53.50;;;;;;6223684;28;20025;-73
2023/05/27 01:33:30;;;;;;;6.95;4.32;;;22.50;53.50;;;;;;6214065;28;20025;-72
2023/05/27 01:36:49;;;;;;;7.55;4.90;;;22.60;53.70;;;;;;6182200;28;20121;-72
2023/05/27 01:39:57;;;;;;;6.90;4.70;;;22.50;53.90;;;;;;6215911;28;20034;-71
2023/05/27 01:43:03;;;;;;;;;;;22.50;54.00;;;;;;6216579;28;20124;-72
2023/05/27 01:46:10;;;;;;;9.18;4.38;;;22.50;54.00;;;;;;6233942;28;19920;-71
2023/05/27 01:49:21;;;;;;;6.22;4.30;;;22.50;54.00;;;;;;6240431;28;20088;-72
2023/05/27 01:52:29;;;;;;;;;;;22.50;54.00;;;;;;6240536;28;20469;-71
2023/05/27 01:55:41;;;;;;;6.63;4.50;;;22.50;54.10;;;;;;6240501;28;20050;-72
2023/05/27 01:58:47;;;;;;;8.30;4.70;;;22.40;54.00;;;;;;6239938;28;20033;-73
2023/05/27 02:02:02;;;;;;;6.85;4.43;;;22.40;54.20;;;;;;6240020;28;20126;-72
2023/05/27 02:05:13;;;;;;;9.07;4.88;;;22.30;54.30;;;;;;6240001;28;20033;-73
2023/05/27 02:08:24;;;;;;;9.35;4.22;;;22.30;54.30;;;;;;6236726;28;20021;-72
2023/05/27 02:11:35;;;;;;;8.52;4.63;;;22.30;54.50;;;;;;6239580;28;20029;-73
2023/05/27 02:14:42;;;;;;;9.45;4.40;;;22.30;54.60;;;;;;6239907;28;20715;-72
2023/05/27 02:17:54;;;;;;;10.25;4.95;;;22.20;54.60;;;;;;6240108;28;20030;-73
2023/05/27 02:21:06;;;;;;;5.88;3.92;;;22.20;54.60;;;;;;6221776;28;20034;-73
2023/05/27 02:24:17;;;;;;;6.45;4.28;;;22.20;54.80;;;;;;6221272;28;20048;-73
2023/05/27 02:27:25;;;;;;;11.38;4.40;;;22.20;54.80;;;;;;6222852;28;20045;-72
2023/05/27 02:30:36;;;;;;;10.18;4.28;;;22.20;54.80;;;;;;6244723;28;20029;-72
2023/05/27 02:33:41;;;;;;;11.63;4.70;;;22.10;54.80;;;;;;6228807;28;20036;-73
2023/05/27 02:36:51;;;;;;;15.45;4.40;;;22.10;54.80;;;;;;6219801;28;20033;-72
2023/05/27 02:39:59;;;;;;;7.15;4.43;;;22.10;54.80;;;;;;6219105;28;20034;-72
2023/05/27 02:43:11;;;;;;;6.55;3.75;;;22.10;54.80;;;;;;6244017;28;20029;-72
2023/05/27 02:46:24;;;;;;;7.35;4.30;;;22.10;54.80;;;;;;6243568;28;20507;-72
2023/05/27 02:49:29;;;;;;;6.13;3.97;;;22.10;54.90;;;;;;6226285;28;20029;-71
2023/05/27 02:52:41;;;;;;;8.80;4.13;;;22.10;54.90;;;;;;6211840;28;20034;-71
2023/05/27 02:55:50;;;;;;;6.45;4.20;;;22.00;55.00;;;;;;6205849;28;20183;-73
2023/05/27 02:58:58;;;;;;;7.45;4.53;;;22.00;55.80;;;;;;6243633;28;20044;-72
2023/05/27 03:02:09;;;;;;;10.95;4.60;;;22.00;55.20;;;;;;6224874;28;20042;-72
2023/05/27 03:05:17;;;;;;;8.68;4.68;;;21.90;55.10;;;;;;6243386;28;20064;-72
2023/05/27 03:08:27;;;;;;;8.75;4.15;;;21.90;55.10;;;;;;6226178;28;20037;-72
2023/05/27 03:11:33;;;;;;;10.32;4.57;;;21.90;55.20;;;;;;6243279;28;20044;-72
2023/05/27 03:14:43;;;;;;;9.20;4.47;;;21.90;55.20;;;;;;6242849;28;20121;-72
2023/05/27 03:17:50;;;;;;;10.10;4.68;;;21.80;55.20;;;;;;6242280;28;20530;-71
2023/05/27 03:20:56;;;;;;;10.38;4.28;;;21.80;55.30;;;;;;6242894;28;20029;-73
2023/05/27 03:24:05;;;;;;;13.45;4.20;;;21.80;55.50;;;;;;6242834;28;20076;-71
2023/05/27 03:27:16;;;;;;;8.25;4.45;;;21.70;55.70;;;;;;6243373;28;20026;-73
2023/05/27 03:30:24;;;;;;;8.40;4.45;;;21.60;55.80;;;;;;6242458;28;20025;-72
2023/05/27 03:33:31;;;;;;;13.77;5.18;;;21.60;56.10;;;;;;6243149;28;20025;-72
2023/05/27 03:36:42;;;;;;;;;;;21.50;56.30;;;;;;6242985;28;20113;-72
2023/05/27 03:39:50;;;;;;;7.65;4.90;;;21.50;56.40;;;;;;6223533;28;19952;-72
2023/05/27 03:43:00;;;;;;;10.38;4.88;;;21.50;56.30;;;;;;6242843;28;20034;-72
2023/05/27 03:46:12;;;;;;;7.63;4.75;;;21.40;56.50;;;;;;6242509;28;20021;-72
2023/05/27 03:49:20;;;;;;;14.23;5.22;;;21.40;56.60;;;;;;6241949;28;20079;-73
2023/05/27 03:52:27;;;;;;;16.95;4.68;;;21.30;56.70;;;;;;6229936;28;20036;-72
2023/05/27 03:55:36;;;;;;;11.40;4.47;;;21.30;56.80;;;;;;6219453;28;20388;-71
2023/05/27 03:58:46;;;;;;;8.05;4.80;;;21.30;56.90;;;;;;6242707;28;20033;-72
2023/05/27 04:01:55;;;;;;;13.82;5.60;;;21.30;57.10;;;;;;6239580;28;20069;-71
2023/05/27 04:05:02;;;;;;;11.93;5.28;;;21.30;57.20;;;;;;6242233;28;20036;-72
2023/05/27 04:08:15;;;;;;;9.30;5.85;;;21.30;57.30;;;;;;6241065;28;20144;-72
2023/05/27 04:11:25;;;;;;;8.90;5.00;;;21.30;57.40;;;;;;6223943;28;20087;-71
2023/05/27 04:14:31;;;;;;;9.80;5.00;;;21.30;57.40;;;;;;6223743;28;20022;-72
2023/05/27 04:17:44;;;;;;;10.93;5.38;;;21.30;57.50;;;;;;6222763;28;20055;-73
2023/05/27 04:20:50;;;;;;;8.50;5.70;;;21.30;57.60;;;;;;6222689;28;20072;-72
2023/05/27 04:23:58;;;;;;;;;;;21.30;57.50;;;;;;6242109;28;20036;-72
2023/05/27 04:27:06;;;;;;;12.95;5.90;;;21.30;57.50;;;;;;6241471;28;19971;-71
2023/05/27 04:30:18;;;;;;;10.75;6.35;;;21.30;57.20;;;;;;6240733;28;20033;-72
2023/05/27 04:33:24;;;;;;;9.30;4.93;;;21.30;57.20;;;;;;6221412;28;20025;-71
2023/05/27 04:36:33;;;;;;;10.10;5.40;;;21.30;57.20;;;;;;6223180;28;20430;-73
2023/05/27 04:39:49;;;;;;;10.88;5.75;;;21.30;57.40;;;;;;6222807;28;20270;-72
2023/05/27 04:42:59;;;;;;;11.38;5.75;;;21.30;57.70;;;;;;6241087;28;20084;-71
2023/05/27 04:46:03;;;;;;;10.63;5.57;;;21.30;58.00;;;;;;6223288;28;20116;-71
2023/05/27 04:49:12;;;;;;;10.18;5.57;;;21.30;58.10;;;;;;6222961;28;20057;-72
2023/05/27 04:52:24;;;;;;;9.60;5.63;;;21.30;58.00;;;;;;6222360;28;20152;-72
2023/05/27 04:55:30;;;;;;;10.80;5.13;;;21.20;58.00;;;;;;6221275;28;20033;-72
2023/05/27 04:58:39;;;;;;;15.15;6.13;;;21.30;58.00;;;;;;6206657;28;20029;-73
2023/05/27 05:05:34;;;;;;;10.50;4.85;;;21.30;58.10;;;;;;6188608;28;20035;-71
2023/05/27 05:08:42;;;;;;;13.82;5.22;;;21.30;57.90;;;;;;6171443;28;20042;-73
2023/05/27 05:11:55;;;;;;;11.52;5.72;;;21.40;57.80;;;;;;6188452;28;20042;-71
2023/05/27 05:15:05;;;;;;;8.32;4.85;;;21.40;57.70;;;;;;6188001;28;20427;-72
2023/05/27 05:18:16;;;;;;;12.80;4.95;;;21.50;57.90;;;;;;6171887;28;20031;-73
2023/05/27 05:21:24;;;;;;;12.18;5.63;;;21.50;57.90;;;;;;6188260;28;20042;-71
2023/05/27 05:24:31;;;;;;;17.60;5.55;;;21.50;57.90;;;;;;6188219;28;20031;-73
2023/05/27 05:27:41;;;;;;;12.55;5.43;;;21.50;57.90;;;;;;6187816;28;20042;-72
2023/05/27 05:30:56;;;;;;;15.77;5.35;;;21.50;57.80;;;;;;6187709;28;20038;-71
2023/05/27 05:34:01;;;;;;;12.90;5.75;;;21.50;57.80;;;;;;6187777;28;20064;-72
2023/05/27 05:37:15;;;;;;;11.65;6.32;;;21.50;57.90;;;;;;6187733;28;20057;-72
2023/05/27 05:40:26;;;;;;;8.30;5.13;;;21.60;57.90;;;;;;6187419;28;20111;-73
2023/05/27 05:43:51;;;;;;;12.30;5.82;;;21.60;57.80;;;;;;6215427;28;20022;-72
2023/05/27 05:47:00;;;;;;;13.10;6.03;;;21.70;57.80;;;;;;6215373;28;20080;-74
2023/05/27 05:50:08;;;;;;;11.18;5.68;;;21.80;57.70;;;;;;6215432;28;20037;-72
2023/05/27 05:53:20;;;;;;;13.95;5.63;;;21.90;57.60;;;;;;6230621;28;20572;-72
2023/05/27 05:56:29;;;;;;;8.35;5.20;;;21.90;57.50;;;;;;6239925;28;20029;-73
2023/05/27 05:59:41;;;;;;;11.05;5.13;;;21.90;57.50;;;;;;6240268;28;20036;-72
2023/05/27 06:02:50;;;;;;;10.80;4.70;;;22.00;57.60;;;;;;6240422;28;20095;-73
2023/05/27 06:06:21;;;;;;;8.23;4.53;;;21.90;57.50;;;;;;6243890;28;20049;-71
2023/05/27 06:09:51;;;;;;;9.68;5.07;;;22.00;57.50;;;;;;6244734;28;20060;-73
2023/05/27 06:13:05;;;;;;;;;;;22.10;57.40;;;;;;6245725;28;20083;-70
2023/05/27 06:16:13;;;;;;;14.55;5.65;;;22.20;57.20;;;;;;6245118;28;19962;-73
2023/05/27 06:19:20;;;;;;;9.05;5.43;;;22.30;57.00;;;;;;6244657;28;20072;-74
2023/05/27 06:22:28;;;;;;;11.88;5.43;;;22.30;57.00;;;;;;6245089;28;20061;-71
2023/05/27 06:25:54;;;;;;;11.68;5.25;;;22.30;57.00;;;;;;6244777;28;20037;-72
2023/05/27 06:29:02;;;;;;;9.77;5.30;;;22.30;56.80;;;;;;6226930;28;20021;-72
2023/05/27 06:32:11;;;;;;;15.95;5.88;;;22.40;56.80;;;;;;6226255;28;20103;-73
2023/05/27 06:35:22;;;;;;;10.07;5.50;;;22.50;56.70;;;;;;6226112;28;20176;-72
2023/05/27 06:38:30;;;;;;;15.02;5.47;;;22.60;56.40;;;;;;6243678;28;20791;-72
2023/05/27 06:41:38;;;;;;;9.57;5.45;;;22.70;56.30;;;;;;6227003;28;20115;-72
2023/05/27 06:45:12;;;;;;;9.60;5.20;;;22.80;56.10;;;;;;6232962;28;20163;-72
2023/05/27 06:48:21;;;;;;;11.35;4.75;;;23.00;55.80;;;;;;6243418;28;20025;-74
2023/05/27 06:51:28;;;;;;;10.40;5.13;;;23.10;55.50;;;;;;6243654;28;20108;-72
2023/05/27 06:54:36;;;;;;;12.43;5.15;;;23.20;55.30;;;;;;6243351;28;20056;-72
2023/05/27 06:57:59;;;;;;;8.40;5.20;;;23.40;55.00;;;;;;6243174;28;20494;-72
2023/05/27 07:01:24;;;;;;;7.57;4.85;;;23.50;54.60;;;;;;6242959;28;20787;-73
2023/05/27 07:04:31;;;;;;;11.68;5.20;;;23.60;54.40;;;;;;6225505;28;20129;-72
2023/05/27 07:07:42;;;;;;;10.07;4.85;;;23.80;54.00;;;;;;6242947;28;20036;-72
2023/05/27 07:10:50;;;;;;;13.63;4.85;;;23.90;53.60;;;;;;6243634;28;20359;-74
2023/05/27 07:13:58;;;;;;;8.93;4.45;;;24.10;53.30;;;;;;6225913;28;20029;-71
2023/05/27 07:17:08;;;;;;;8.25;4.28;;;24.50;52.40;;;;;;6244555;28;20029;-72
2023/05/27 07:20:18;;;;;;;10.30;4.75;;;24.80;51.10;;;;;;6245211;28;20021;-72
2023/05/27 07:23:25;;;;;;;9.15;4.07;;;25.00;50.30;;;;;;6244182;28;20033;-72
2023/05/27 07:26:47;;;;;;;6.32;4.15;;;25.10;50.10;;;;;;6242981;28;20025;-73
2023/05/27 07:29:58;;;;;;;9.48;4.90;;;25.00;50.60;;;;;;6242866;28;20044;-73
2023/05/27 07:33:30;;;;;;;8.80;4.53;;;24.90;50.00;;;;;;6241379;28;20143;-72
2023/05/27 07:36:38;;;;;;;11.68;4.68;;;25.00;50.00;;;;;;6242980;28;20041;-73
2023/05/27 07:39:46;;;;;;;14.20;4.80;;;25.00;49.60;;;;;;6223902;28;20044;-74
2023/05/27 07:42:57;;;;;;;7.75;4.10;;;25.10;49.50;;;;;;6224687;28;20072;-73
2023/05/27 07:46:03;;;;;;;9.75;4.65;;;25.10;49.40;;;;;;6243058;28;20028;-73
2023/05/27 07:49:15;;;;;;;6.80;4.63;;;25.10;49.30;;;;;;6223962;28;20230;-73
2023/05/27 07:52:41;;;;;;;10.15;5.35;;;25.20;49.10;;;;;;6241338;28;20045;-72
2023/05/27 07:56:01;;;;;;;11.85;4.63;;;25.30;48.30;;;;;;6218755;28;20117;-72
2023/05/27 07:59:07;;;;;;;11.50;5.35;;;25.30;48.30;;;;;;6200895;28;20101;-74
2023/05/27 08:02:18;;;;;;;6.97;5.05;;;25.40;48.00;;;;;;6218286;28;20153;-73
2023/05/27 08:05:28;;;;;;;8.38;4.85;;;25.40;47.90;;;;;;6200121;28;20063;-73
2023/05/27 08:08:58;;;;;;;12.07;4.90;;;25.50;48.00;;;;;;6199618;28;20104;-72
2023/05/27 08:12:15;;;;;;;12.35;5.40;;;25.50;47.90;;;;;;6217422;28;20129;-72
2023/05/27 08:15:30;;;;;;;12.05;5.15;;;25.60;48.00;;;;;;6217702;28;20111;-72
2023/05/27 08:18:48;;;;;;;17.45;4.75;;;25.80;47.90;;;;;;6210467;28;20501;-74
2023/05/27 08:22:08;;;;;;;9.63;5.40;;;25.80;47.50;;;;;;6241890;28;20174;-72
2023/05/27 08:25:30;;;;;;;11.32;5.38;;;25.90;47.70;;;;;;6242494;28;20049;-75
2023/05/27 08:28:55;;;;;;;7.20;4.88;;;26.00;47.30;;;;;;6242018;28;20037;-74
2023/05/27 08:32:17;;;;;;;7.68;4.95;;;26.10;47.30;;;;;;6226056;28;20024;-73
2023/05/27 08:35:25;;;;;;;9.23;5.07;;;26.20;47.10;;;;;;6241381;28;20028;-73
2023/05/27 08:38:31;;;;;;;8.70;5.45;;;26.40;46.90;;;;;;6241156;28;20053;-72
2023/05/27 08:41:52;;;;;;;15.80;5.68;;;26.50;46.70;;;;;;6223126;28;20120;-71
2023/05/27 08:44:58;;;;;;;12.02;4.90;;;26.70;46.50;;;;;;6241655;28;20060;-72
2023/05/27 08:48:09;;;;;;;13.18;4.85;;;26.90;46.40;;;;;;6242355;28;20030;-73
2023/05/27 08:51:22;;;;;;;9.20;5.25;;;27.00;45.70;;;;;;6207355;28;20064;-74
2023/05/27 08:54:28;;;;;;;12.23;4.90;;;27.10;45.20;;;;;;6241453;28;20017;-73
2023/05/27 08:57:41;;;;;;;14.88;5.47;;;27.20;44.70;;;;;;6221431;28;20022;-73
2023/05/27 09:00:50;;;;;;;10.25;5.82;;;27.20;44.90;;;;;;6216691;28;20083;-72
2023/05/27 09:03:58;;;;;;;10.60;4.38;;;27.20;44.20;;;;;;6216501;28;20060;-73
2023/05/27 09:07:06;;;;;;;9.32;4.45;;;27.20;44.00;;;;;;6198198;28;20105;-73
2023/05/27 09:10:17;;;;;;;11.23;5.18;;;27.30;43.50;;;;;;6217001;28;20056;-73
2023/05/27 09:13:31;;;;;;;10.07;4.90;;;27.40;43.10;;;;;;6198956;28;20041;-73
2023/05/27 09:16:46;;;;;;;8.48;4.80;;;27.40;43.20;;;;;;6221054;28;20032;-73
2023/05/27 09:19:58;;;;;;;9.60;4.82;;;27.50;43.10;;;;;;6222555;28;20037;-73
2023/05/27 09:23:05;;;;;;;11.70;5.32;;;27.50;43.00;;;;;;6240785;28;20033;-75
2023/05/27 09:26:14;;;;;;;11.13;5.40;;;27.60;42.80;;;;;;6240464;28;20037;-72
2023/05/27 09:29:25;;;;;;;8.43;4.78;;;27.70;42.80;;;;;;6240668;28;20026;-74
2023/05/27 09:32:32;;;;;;;8.00;4.63;;;27.70;42.70;;;;;;6240351;28;20025;-73
2023/05/27 09:35:42;;;;;;;10.57;5.28;;;27.80;42.70;;;;;;6240174;28;20033;-74
2023/05/27 09:38:52;;;;;;;6.60;4.10;;;27.90;42.80;;;;;;6206043;28;20058;-74
2023/05/27 09:42:00;;;;;;;11.02;4.57;;;27.90;42.80;;;;;;6221195;28;20048;-74
2023/05/27 09:45:09;;;;;;;7.32;4.65;;;28.00;42.80;;;;;;6202994;28;20045;-73
2023/05/27 09:48:21;;;;;;;9.35;4.82;;;28.10;42.80;;;;;;6220885;28;20030;-74
2023/05/27 09:51:28;;;;;;;14.43;4.68;;;28.00;42.50;;;;;;6221401;28;20085;-73
2023/05/27 09:54:36;;;;;;;10.10;5.05;;;28.10;42.70;;;;;;6220600;28;20029;-72
2023/05/27 09:57:47;;;;;;;9.60;5.20;;;28.10;42.70;;;;;;6220014;28;20032;-73
2023/05/27 10:00:59;;;;;;;11.95;5.45;;;28.10;42.60;;;;;;6219896;28;20037;-73
2023/05/27 10:04:11;;;;;;;8.90;5.00;;;28.20;42.40;;;;;;6220153;28;20053;-73
2023/05/27 10:07:23;;;;;;;10.70;4.63;;;28.30;42.10;;;;;;6218944;28;20740;-73
2023/05/27 10:10:28;;;;;;;11.43;4.93;;;28.30;42.00;;;;;;6220977;28;20030;-74
2023/05/27 10:13:31;;;;;;;11.77;4.72;;;28.40;42.00;;;;;;6243904;28;20026;-73
2023/05/27 10:16:39;;;;;;;9.50;4.63;;;28.50;42.50;;;;;;6243691;28;20052;-73
2023/05/27 10:19:59;;;;;;;8.18;4.57;;;28.60;41.50;;;;;;6243313;28;20032;-73
2023/05/27 10:23:20;;;;;;;13.05;4.60;;;28.60;41.60;;;;;;6225550;28;20041;-73
2023/05/27 10:26:42;;;;;;;15.55;4.88;;;28.70;41.30;;;;;;6243060;28;20026;-73
2023/05/27 10:29:59;;;;;;;9.15;4.45;;;28.70;41.30;;;;;;6243412;28;20063;-73
2023/05/27 10:33:10;;;;;;;8.82;4.47;;;28.90;41.40;;;;;;6243551;28;20091;-74
2023/05/27 10:36:31;;;;;;;7.47;4.30;;;29.00;41.20;;;;;;6227160;28;20041;-73
2023/05/27 10:39:41;;;;;;;5.50;4.10;;;29.10;41.00;;;;;;6227001;28;20504;-73
2023/05/27 10:42:47;;;;;;;8.02;4.70;;;29.20;40.70;;;;;;6243612;28;20021;-73
2023/05/27 10:46:05;;;;;;;8.75;4.57;;;29.30;40.40;;;;;;6243833;28;20041;-73
2023/05/27 10:49:23;;;;;;;13.88;5.05;;;29.40;40.30;;;;;;6242663;28;20033;-74
2023/05/27 10:52:33;;;;;;;9.55;4.13;;;29.40;40.20;;;;;;6225413;28;20032;-74
2023/05/27 10:55:46;;;;;;;9.02;4.90;;;29.50;40.10;;;;;;6243288;28;20025;-73
2023/05/27 10:58:56;;;;;;;9.32;4.80;;;29.50;39.90;;;;;;6242854;28;20025;-74
2023/05/27 11:02:06;;;;;;;8.65;4.60;;;30.00;39.10;;;;;;6242902;28;20023;-74
2023/05/27 11:05:23;;;;;;;7.57;3.78;;;31.00;37.60;;;;;;6243350;28;20076;-73
2023/05/27 11:08:31;;;;;;;6.10;4.13;;;32.00;35.90;;;;;;6226452;28;20034;-74
2023/05/27 11:11:39;;;;;;;9.18;4.78;;;32.80;34.60;;;;;;6217884;28;20052;-72
2023/05/27 11:14:58;;;;;;;10.30;4.18;;;33.50;33.40;;;;;;6217881;28;20037;-73
2023/05/27 11:18:08;;;;;;;5.40;3.95;;;34.10;32.50;;;;;;6217835;28;20430;-73
2023/05/27 11:21:20;;;;;;;10.85;4.72;;;34.60;31.20;;;;;;6218038;28;20189;-75
2023/05/27 11:24:28;;;;;;;5.95;3.50;;;35.00;30.60;;;;;;6217980;28;20109;-73
2023/05/27 11:27:38;;;;;;;6.53;4.05;;;35.30;29.80;;;;;;6199693;28;20038;-73
2023/05/27 11:30:48;;;;;;;6.13;3.90;;;35.60;29.50;;;;;;6233040;28;20029;-73
2023/05/27 11:34:00;;;;;;;7.00;3.70;;;35.90;29.10;;;;;;6224680;28;20105;-73
2023/05/27 11:37:09;;;;;;;5.95;3.65;;;36.20;28.80;;;;;;6217841;28;20101;-73
2023/05/27 11:40:18;;;;;;;8.75;4.10;;;36.50;28.60;;;;;;6218222;28;20069;-74
2023/05/27 11:43:24;;;;;;;;;;;36.80;28.40;;;;;;6218509;28;20060;-72
2023/05/27 11:46:43;;;;;;;7.75;4.22;;;37.10;28.50;;;;;;6217316;28;19921;-72
2023/05/27 11:49:53;;;;;;;5.75;3.80;;;37.40;28.30;;;;;;6217755;28;20132;-73
2023/05/27 11:53:06;;;;;;;6.07;3.88;;;37.60;28.30;;;;;;6233208;28;20046;-75
2023/05/27 11:56:14;;;;;;;6.03;3.80;;;37.80;28.30;;;;;;6233566;28;20026;-73
2023/05/27 11:59:24;;;;;;;8.13;4.28;;;37.90;28.70;;;;;;6199409;28;20429;-74
2023/05/27 12:02:33;;;;;;;6.57;4.57;;;37.80;28.20;;;;;;6197725;28;20030;-74
2023/05/27 12:05:46;;;;;;;10.18;4.15;;;37.70;28.10;;;;;;6240942;28;20035;-74
2023/05/27 12:08:52;;;;;;;7.53;4.35;;;37.70;28.00;;;;;;6241018;28;20026;-74
2023/05/27 12:12:01;;;;;;;8.10;4.53;;;37.90;28.00;;;;;;6241189;28;20037;-74
2023/05/27 12:15:10;;;;;;;5.10;3.63;;;38.00;27.60;;;;;;6223997;28;20109;-73
2023/05/27 12:18:18;;;;;;;6.95;3.28;;;38.20;27.70;;;;;;6240991;28;20520;-73
2023/05/27 12:21:24;;;;;;;16.25;4.13;;;38.30;27.60;;;;;;6222760;28;20045;-73
2023/05/27 12:24:36;;;;;;;6.30;3.97;;;38.60;27.50;;;;;;6241089;28;20033;-72
2023/05/27 12:27:41;;;;;;;11.15;4.50;;;38.90;27.10;;;;;;6240327;28;20037;-73
2023/05/27 12:30:49;;;;;;;6.97;4.22;;;39.10;26.70;;;;;;6240416;28;20088;-74
2023/05/27 12:33:58;;;;;;;6.07;3.40;;;39.30;26.60;;;;;;6223970;28;20107;-74
2023/05/27 12:37:09;;;;;;;7.10;3.83;;;39.40;26.90;;;;;;6214666;28;20129;-73
2023/05/27 12:40:18;;;;;;;7.53;3.80;;;39.40;26.20;;;;;;6198585;28;20152;-74
2023/05/27 12:43:24;;;;;;;8.52;4.03;;;39.50;26.00;;;;;;6197752;28;20041;-74
2023/05/27 12:46:33;;;;;;;7.47;3.95;;;39.50;26.00;;;;;;6215644;28;20033;-73
2023/05/27 12:49:39;;;;;;;7.13;4.10;;;39.50;25.90;;;;;;6215474;28;20132;-74
2023/05/27 12:52:47;;;;;;;9.80;4.20;;;39.50;25.60;;;;;;6229913;28;20037;-75
2023/05/27 12:55:58;;;;;;;8.55;3.78;;;39.70;25.50;;;;;;6234748;28;20076;-73
2023/05/27 12:59:06;;;;;;;7.28;3.35;;;39.80;25.30;;;;;;6216055;28;20026;-74
2023/05/27 13:02:13;;;;;;;8.95;3.90;;;40.20;25.00;;;;;;6240030;28;20112;-74
2023/05/27 13:05:19;;;;;;;7.20;3.72;;;40.50;24.70;;;;;;6239898;28;20127;-75
2023/05/27 13:08:27;;;;;;;7.45;3.97;;;41.10;24.20;;;;;;6239450;28;20033;-73
2023/05/27 13:11:37;;;;;;;6.43;3.33;;;41.60;23.80;;;;;;6239904;28;20033;-72
2023/05/27 13:14:43;;;;;;;9.02;4.10;;;42.10;23.30;;;;;;6239903;28;20271;-73
2023/05/27 13:17:52;;;;;;;7.13;3.83;;;42.20;22.90;;;;;;6239835;28;20029;-72
2023/05/27 13:21:00;;;;;;;8.52;3.17;;;42.20;22.90;;;;;;6239977;28;20021;-74
2023/05/27 13:24:14;;;;;;;10.27;3.55;;;42.20;22.70;;;;;;6239718;28;20029;-74
2023/05/27 13:27:24;;;;;;;6.65;3.88;;;42.10;22.80;;;;;;6239573;28;20044;-73
2023/05/27 13:30:30;;;;;;;4.90;3.65;;;42.00;22.90;;;;;;6240080;28;20033;-74
2023/05/27 13:33:38;;;;;;;5.90;3.67;;;42.10;22.70;;;;;;6225772;28;20030;-73
2023/05/27 13:36:46;;;;;;;4.43;3.40;;;42.00;22.60;;;;;;6215399;28;20026;-73
2023/05/27 13:39:52;;;;;;;8.10;3.70;;;41.70;22.60;;;;;;6197680;28;20038;-73
2023/05/27 13:43:03;;;;;;;7.22;4.03;;;41.50;22.80;;;;;;6215467;28;20030;-74
2023/05/27 13:46:13;;;;;;;5.47;3.58;;;41.20;23.00;;;;;;6215848;28;20038;-74
2023/05/27 13:49:21;;;;;;;6.57;3.30;;;40.80;23.20;;;;;;6198553;28;20042;-74
2023/05/27 13:52:29;;;;;;;13.17;4.17;;;40.50;23.30;;;;;;6218521;28;20030;-74
2023/05/27 13:55:39;;;;;;;3.90;3.03;;;40.50;23.30;;;;;;6217451;28;20279;-73
2023/05/27 13:58:47;;;;;;;8.18;3.13;;;40.50;22.90;;;;;;6240204;28;20033;-73
2023/05/27 14:01:54;;;;;;;6.97;3.25;;;40.50;22.60;;;;;;6222363;28;20029;-73
2023/05/27 14:04:59;;;;;;;8.80;3.40;;;40.70;22.40;;;;;;6239359;28;20030;-73
2023/05/27 14:08:11;;;;;;;5.90;2.65;;;40.80;22.30;;;;;;6239333;28;20084;-73
2023/05/27 14:11:21;;;;;;;4.75;3.47;;;41.10;22.40;;;;;;6222481;28;20067;-74
2023/05/27 14:14:28;;;;;;;10.65;3.10;;;41.40;22.20;;;;;;6240232;28;20083;-74
2023/05/27 14:17:35;;;;;;;15.82;3.10;;;41.40;22.00;;;;;;6239479;28;20052;-74
2023/05/27 14:20:43;;;;;;;4.55;3.03;;;41.10;22.00;;;;;;6237744;28;20033;-74
2023/05/27 14:23:52;;;;;;;5.97;2.90;;;41.00;22.10;;;;;;6239290;28;20108;-74
2023/05/27 14:27:01;;;;;;;5.97;3.35;;;40.60;22.20;;;;;;6243921;28;20033;-73
2023/05/27 14:30:10;;;;;;;7.53;3.40;;;40.60;22.30;;;;;;6243879;28;20033;-74
2023/05/27 14:33:23;;;;;;;5.53;3.50;;;40.70;22.30;;;;;;6226113;28;20060;-73
2023/05/27 14:36:30;;;;;;;11.93;3.42;;;40.80;22.30;;;;;;6243885;28;20060;-73
2023/05/27 14:39:37;;;;;;;4.85;2.97;;;41.00;22.00;;;;;;6242984;28;20021;-73
2023/05/27 14:42:44;;;;;;;8.55;3.60;;;41.20;21.80;;;;;;6242912;28;20034;-72
2023/05/27 14:45:49;;;;;;;3.63;3.00;;;41.10;21.80;;;;;;6241730;28;20025;-74
2023/05/27 14:48:57;;;;;;;12.05;3.25;;;40.60;22.10;;;;;;6243021;28;20041;-73
2023/05/27 14:52:03;;;;;;;;;;;40.30;22.30;;;;;;6243698;28;20027;-73
2023/05/27 14:55:13;;;;;;;3.95;2.85;;;40.10;22.30;;;;;;6243261;28;19913;-74
2023/05/27 14:58:22;;;;;;;6.85;3.47;;;39.80;22.60;;;;;;6218052;28;20054;-73
2023/05/27 15:01:28;;;;;;;11.40;3.80;;;39.40;22.80;;;;;;6218362;28;20037;-72
2023/05/27 15:04:32;;;;;;;3.72;3.15;;;39.10;23.10;;;;;;6218197;28;20095;-74
2023/05/27 15:07:42;;;;;;;6.32;3.42;;;38.60;23.60;;;;;;6218115;28;20030;-74
2023/05/27 15:10:48;;;;;;;6.78;3.28;;;38.00;24.20;;;;;;6218266;28;20120;-74
2023/05/27 15:13:56;;;;;;;6.13;3.08;;;37.50;24.60;;;;;;6216711;28;20683;-74
2023/05/27 15:17:10;;;;;;;5.40;3.30;;;37.40;24.80;;;;;;6242546;28;20087;-73
2023/05/27 15:20:20;;;;;;;5.07;3.00;;;37.30;24.80;;;;;;6243081;28;20033;-74
2023/05/27 15:23:33;;;;;;;6.03;3.03;;;37.50;24.90;;;;;;6242939;28;20041;-73
2023/05/27 15:26:42;;;;;;;8.57;3.50;;;37.50;24.80;;;;;;6225574;28;20033;-73
2023/05/27 15:29:51;;;;;;;4.05;2.88;;;37.50;24.90;;;;;;6242301;28;20060;-73
2023/05/27 15:33:02;;;;;;;10.50;3.92;;;37.60;24.80;;;;;;6241640;28;20029;-73
2023/05/27 15:36:10;;;;;;;4.28;3.00;;;37.70;24.70;;;;;;6241770;28;20033;-73
2023/05/27 15:39:23;;;;;;;12.15;3.55;;;37.60;24.80;;;;;;6241686;28;20025;-73
2023/05/27 15:42:33;;;;;;;7.70;3.40;;;37.50;24.90;;;;;;6241492;28;20041;-73
2023/05/27 15:45:41;;;;;;;6.47;3.20;;;37.50;24.90;;;;;;6242066;28;20049;-74
2023/05/27 15:48:49;;;;;;;6.95;3.28;;;37.30;25.00;;;;;;6241421;28;20381;-74
2023/05/27 15:51:58;;;;;;;5.35;3.10;;;37.20;25.20;;;;;;6215190;28;20030;-73
2023/05/27 15:55:05;;;;;;;7.88;3.63;;;36.90;25.50;;;;;;6216855;28;20147;-74
2023/05/27 15:58:11;;;;;;;7.75;3.60;;;36.80;25.80;;;;;;6240664;28;20392;-75
2023/05/27 16:01:23;;;;;;;6.53;3.40;;;36.60;26.50;;;;;;6241182;28;20037;-74
2023/05/27 16:04:31;;;;;;;9.00;3.35;;;36.20;26.20;;;;;;6223208;28;20041;-74
2023/05/27 16:07:39;;;;;;;5.47;3.30;;;35.90;26.80;;;;;;6241063;28;20033;-75
2023/05/27 16:10:57;;;;;;;5.50;3.00;;;35.30;27.10;;;;;;6222740;28;20021;-75
2023/05/27 16:14:05;;;;;;;7.78;2.85;;;35.00;27.40;;;;;;6240585;28;20029;-72
2023/05/27 16:17:11;;;;;;;5.15;2.90;;;34.80;27.60;;;;;;6240828;28;20022;-74
2023/05/27 16:20:24;;;;;;;10.70;4.43;;;34.60;27.90;;;;;;6240848;28;20105;-74
2023/05/27 16:23:30;;;;;;;5.47;3.00;;;34.50;28.10;;;;;;6241187;28;20105;-74
2023/05/27 16:26:38;;;;;;;8.68;3.38;;;34.40;28.30;;;;;;6222828;28;20150;-75
2023/05/27 16:29:46;;;;;;;14.40;3.83;;;34.10;28.50;;;;;;6240777;28;20032;-74
2023/05/27 16:32:57;;;;;;;7.03;4.00;;;34.10;28.60;;;;;;6214138;28;20026;-73